createdAt,value
2023-04-02T00:00:37.769Z,-1.39
2023-04-02T00:03:08.727Z,-1.42
2023-04-02T00:05:52.200Z,-1.45
2023-04-02T00:08:24.871Z,-1.48
2023-04-02T00:10:55.464Z,-1.51
2023-04-02T00:13:46.927Z,-1.55
2023-04-02T00:16:24.965Z,-1.52
2023-04-02T00:18:56.391Z,-1.53
2023-04-02T00:21:27.828Z,-1.53
2023-04-02T00:23:56.732Z,-1.56
2023-04-02T00:26:32.905Z,-1.55
2023-04-02T00:29:05.071Z,-1.55
2023-04-02T00:31:32.894Z,-1.58
2023-04-02T00:34:06.900Z,-1.60
2023-04-02T00:36:34.614Z,-1.65
2023-04-02T00:39:04.929Z,-1.69
2023-04-02T00:41:36.202Z,-1.72
2023-04-02T00:44:03.646Z,-1.73
2023-04-02T00:46:34.703Z,-1.73
2023-04-02T00:49:09.157Z,-1.73
2023-04-02T00:51:41.861Z,-1.76
2023-04-02T00:54:15.996Z,-1.84
2023-04-02T00:56:46.363Z,-1.88
2023-04-02T00:59:27.819Z,-1.89
2023-04-02T01:02:01.977Z,-1.88
2023-04-02T01:04:36.575Z,-1.87
2023-04-02T01:07:07.242Z,-1.86
2023-04-02T01:09:56.937Z,-1.87
2023-04-02T01:12:34.174Z,-1.92
2023-04-02T01:15:07.328Z,-1.93
2023-04-02T01:18:00.246Z,-1.93
2023-04-02T01:21:04.519Z,-1.92
2023-04-02T01:24:04.441Z,-1.92
2023-04-02T01:26:54.651Z,-1.93
2023-04-02T01:29:48.612Z,-1.97
2023-04-02T01:32:19.803Z,-1.99
2023-04-02T01:34:48.647Z,-2.03
2023-04-02T01:37:39.865Z,-2.00
2023-04-02T01:40:27.868Z,-2.01
2023-04-02T01:43:06.427Z,-2.02
2023-04-02T01:45:35.552Z,-2.03
2023-04-02T01:48:13.866Z,-2.04
2023-04-02T01:50:42.996Z,-2.06
2023-04-02T01:53:16.180Z,-2.07
2023-04-02T01:55:48.879Z,-2.06
2023-04-02T01:58:20.367Z,-2.08
2023-04-02T02:00:53.625Z,-2.10
2023-04-02T02:03:21.816Z,-2.13
2023-04-02T02:05:48.800Z,-2.15
2023-04-02T02:08:39.933Z,-2.16
2023-04-02T02:11:08.759Z,-2.14
2023-04-02T02:13:36.278Z,-2.14
2023-04-02T02:16:05.007Z,-2.14
2023-04-02T02:18:32.500Z,-2.18
2023-04-02T02:21:01.290Z,-2.18
2023-04-02T02:23:30.012Z,-2.21
2023-04-02T02:25:56.943Z,-2.21
2023-04-02T02:28:27.755Z,-2.20
2023-04-02T02:31:01.539Z,-2.22
2023-04-02T02:33:42.588Z,-2.26
2023-04-02T02:36:28.237Z,-2.26
2023-04-02T02:39:13.352Z,-2.27
2023-04-02T02:42:00.346Z,-2.29
2023-04-02T02:44:41.263Z,-2.31
2023-04-02T02:47:16.074Z,-2.33
2023-04-02T02:49:50.056Z,-2.38
2023-04-02T02:52:20.472Z,-2.34
2023-04-02T02:54:51.320Z,-2.34
2023-04-02T02:57:26.308Z,-2.33
2023-04-02T02:59:57.213Z,-2.34
2023-04-02T03:02:26.906Z,-2.33
2023-04-02T03:04:56.179Z,-2.33
2023-04-02T03:07:26.576Z,-2.34
2023-04-02T03:10:13.871Z,-2.34
2023-04-02T03:13:05.249Z,-2.34
2023-04-02T03:15:42.363Z,-2.39
2023-04-02T03:18:18.187Z,-2.39
2023-04-02T03:21:11.743Z,-2.42
2023-04-02T03:23:50.998Z,-2.43
2023-04-02T03:26:32.717Z,-2.44
2023-04-02T03:29:02.122Z,-2.46
2023-04-02T03:31:59.785Z,-2.50
2023-04-02T03:34:51.493Z,-2.48
2023-04-02T03:37:43.296Z,-2.52
2023-04-02T03:40:20.958Z,-2.50
2023-04-02T03:42:58.354Z,-2.52
2023-04-02T03:45:35.953Z,-2.55
2023-04-02T03:48:10.234Z,-2.55
2023-04-02T03:51:00.031Z,-2.56
2023-04-02T03:53:28.089Z,-2.58
2023-04-02T03:55:56.781Z,-2.62
2023-04-02T03:58:41.273Z,-2.60
2023-04-02T04:01:26.522Z,-2.64
2023-04-02T04:04:03.852Z,-2.68
2023-04-02T04:06:33.580Z,-2.72
2023-04-02T04:09:11.305Z,-2.75
2023-04-02T04:11:44.544Z,-2.80
2023-04-02T04:14:28.257Z,-2.83
2023-04-02T04:17:23.840Z,-2.82
2023-04-02T04:20:22.094Z,-2.83
2023-04-02T04:22:56.026Z,-2.78
2023-04-02T04:25:30.657Z,-2.75
2023-04-02T04:28:19.759Z,-2.74
2023-04-02T04:30:53.309Z,-2.75
2023-04-02T04:33:39.936Z,-2.75
2023-04-02T04:36:27.848Z,-2.78
2023-04-02T04:38:59.570Z,-2.80
2023-04-02T04:41:34.966Z,-2.82
2023-04-02T04:44:13.025Z,-2.80
2023-04-02T04:46:47.596Z,-2.78
2023-04-02T04:49:27.841Z,-2.79
2023-04-02T04:52:22.174Z,-2.81
2023-04-02T04:54:48.965Z,-2.82
2023-04-02T04:57:35.130Z,-2.83
2023-04-02T05:00:17.489Z,-2.83
2023-04-02T05:03:06.203Z,-2.83
2023-04-02T05:05:38.977Z,-2.81
2023-04-02T05:08:13.784Z,-2.81
2023-04-02T05:10:51.924Z,-2.82
2023-04-02T05:13:28.533Z,-2.81
2023-04-02T05:16:11.699Z,-2.84
2023-04-02T05:18:43.854Z,-2.78
2023-04-02T05:21:16.711Z,-2.74
2023-04-02T05:23:53.867Z,-2.69
2023-04-02T05:26:41.948Z,-2.63
2023-04-02T05:29:21.423Z,-2.57
2023-04-02T05:31:53.661Z,-2.54
2023-04-02T05:34:32.045Z,-2.53
2023-04-02T05:36:59.009Z,-2.50
2023-04-02T05:39:27.209Z,-2.46
2023-04-02T05:42:00.354Z,-2.41
2023-04-02T05:44:33.268Z,-2.37
2023-04-02T05:47:07.994Z,-2.33
2023-04-02T05:49:46.037Z,-2.26
2023-04-02T05:52:17.542Z,-2.22
2023-04-02T05:54:58.396Z,-2.18
2023-04-02T05:57:43.831Z,-2.15
2023-04-02T06:00:21.742Z,-2.09
2023-04-02T06:03:00.095Z,-2.04
2023-04-02T06:05:34.150Z,-1.99
2023-04-02T06:08:16.389Z,-1.97
2023-04-02T06:10:54.718Z,-1.91
2023-04-02T06:13:22.104Z,-1.86
2023-04-02T06:15:48.853Z,-1.83
2023-04-02T06:18:28.251Z,-1.75
2023-04-02T06:20:55.901Z,-1.70
2023-04-02T06:23:37.310Z,-1.63
2023-04-02T06:26:19.593Z,-1.56
2023-04-02T06:29:07.128Z,-1.50
2023-04-02T06:31:39.397Z,-1.42
2023-04-02T06:34:14.018Z,-1.35
2023-04-02T06:36:41.314Z,-1.30
2023-04-02T06:39:11.403Z,-1.23
2023-04-02T06:41:38.178Z,-1.14
2023-04-02T06:44:12.147Z,-1.05
2023-04-02T06:46:52.631Z,-0.97
2023-04-02T06:49:44.397Z,-0.84
2023-04-02T06:52:33.391Z,-0.75
2023-04-02T06:55:07.614Z,-0.67
2023-04-02T06:57:35.877Z,-0.60
2023-04-02T07:00:02.782Z,-0.53
2023-04-02T07:02:36.041Z,-0.44
2023-04-02T07:05:09.264Z,-0.35
2023-04-02T07:07:36.182Z,-0.28
2023-04-02T07:10:02.902Z,-0.21
2023-04-02T07:12:29.653Z,-0.13
2023-04-02T07:14:56.327Z,-0.08
2023-04-02T07:17:23.191Z,-0.01
2023-04-02T07:19:50.207Z,0.08
2023-04-02T07:22:20.642Z,0.15
2023-04-02T07:24:47.397Z,0.26
2023-04-02T07:27:15.293Z,0.37
2023-04-02T07:29:44.859Z,0.45
2023-04-02T07:32:13.125Z,0.55
2023-04-02T07:34:40.966Z,0.62
2023-04-02T07:37:09.864Z,0.71
2023-04-02T07:39:38.343Z,0.79
2023-04-02T07:42:06.280Z,0.88
2023-04-02T07:44:32.992Z,0.98
2023-04-02T07:46:59.925Z,1.08
2023-04-02T07:49:27.204Z,1.18
2023-04-02T07:51:53.872Z,1.28
2023-04-02T07:54:20.576Z,1.37
2023-04-02T07:56:47.279Z,1.49
2023-04-02T07:59:13.956Z,1.60
2023-04-02T08:01:43.120Z,1.73
2023-04-02T08:04:20.939Z,1.88
2023-04-02T08:06:48.903Z,2.04
2023-04-02T08:09:16.859Z,2.24
2023-04-02T08:11:43.845Z,2.44
2023-04-02T08:14:10.563Z,2.84
2023-04-02T08:16:54.169Z,3.40
2023-04-02T08:19:21.274Z,4.31
2023-04-02T08:21:51.715Z,5.30
2023-04-02T08:24:22.046Z,6.32
2023-04-02T08:26:50.255Z,7.24
2023-04-02T08:29:17.288Z,7.96
2023-04-02T08:31:43.974Z,8.57
2023-04-02T08:34:10.952Z,9.11
2023-04-02T08:36:40.501Z,9.70
2023-04-02T08:39:14.889Z,10.17
2023-04-02T08:41:52.484Z,10.69
2023-04-02T08:44:45.696Z,10.91
2023-04-02T08:47:15.580Z,11.58
2023-04-02T08:49:44.812Z,11.53
2023-04-02T08:52:28.782Z,11.69
2023-04-02T08:54:58.045Z,11.85
2023-04-02T08:57:34.039Z,11.89
2023-04-02T09:00:20.860Z,12.12
2023-04-02T09:02:53.144Z,12.28
2023-04-02T09:05:29.770Z,12.16
2023-04-02T09:07:59.749Z,12.24
2023-04-02T09:10:40.109Z,12.33
2023-04-02T09:13:20.233Z,12.46
2023-04-02T09:15:47.934Z,12.74
2023-04-02T09:18:19.390Z,12.79
2023-04-02T09:20:48.197Z,12.69
2023-04-02T09:23:21.084Z,12.77
2023-04-02T09:26:02.992Z,12.89
2023-04-02T09:28:30.785Z,12.85
2023-04-02T09:31:19.191Z,12.63
2023-04-02T09:33:51.640Z,12.38
2023-04-02T09:36:39.462Z,12.08
2023-04-02T09:39:23.774Z,11.49
2023-04-02T09:42:04.586Z,11.09
2023-04-02T09:44:32.762Z,10.72
2023-04-02T09:47:05.844Z,10.34
2023-04-02T09:49:40.158Z,9.99
2023-04-02T09:52:27.714Z,9.63
2023-04-02T09:55:19.164Z,9.33
2023-04-02T09:57:47.689Z,9.16
2023-04-02T10:00:29.900Z,9.11
2023-04-02T10:03:04.267Z,9.06
2023-04-02T10:05:40.664Z,8.93
2023-04-02T10:08:21.291Z,8.90
2023-04-02T10:10:51.451Z,8.75
2023-04-02T10:13:36.000Z,8.53
2023-04-02T10:16:12.473Z,8.36
2023-04-02T10:18:42.187Z,8.34
2023-04-02T10:21:12.907Z,8.28
2023-04-02T10:23:39.945Z,8.18
2023-04-02T10:26:32.275Z,7.93
2023-04-02T10:29:21.623Z,7.70
2023-04-02T10:32:06.766Z,7.47
2023-04-02T10:34:33.345Z,7.26
2023-04-02T10:37:11.302Z,7.11
2023-04-02T10:39:44.488Z,7.11
2023-04-02T10:42:26.328Z,7.16
2023-04-02T10:45:02.037Z,7.25
2023-04-02T10:48:07.586Z,7.38
2023-04-02T10:50:49.468Z,7.58
2023-04-02T10:53:21.449Z,7.82
2023-04-02T10:56:03.646Z,7.90
2023-04-02T10:58:34.507Z,7.98
2023-04-02T11:01:08.025Z,8.06
2023-04-02T11:03:37.382Z,8.06
2023-04-02T11:06:15.994Z,7.94
2023-04-02T11:08:46.201Z,7.91
2023-04-02T11:11:22.644Z,7.92
2023-04-02T11:13:57.962Z,8.01
2023-04-02T11:16:25.518Z,8.14
2023-04-02T11:19:16.853Z,8.00
2023-04-02T11:21:59.404Z,7.93
2023-04-02T11:24:30.366Z,7.97
2023-04-02T11:27:12.258Z,7.85
2023-04-02T11:29:52.390Z,7.86
2023-04-02T11:32:22.004Z,7.81
2023-04-02T11:34:53.832Z,7.80
2023-04-02T11:37:45.732Z,7.84
2023-04-02T11:40:12.917Z,7.87
2023-04-02T11:42:49.494Z,7.92
2023-04-02T11:52:47.183Z,7.53
2023-04-02T11:55:35.053Z,7.27
2023-04-02T11:58:08.398Z,7.09
2023-04-02T12:00:53.032Z,7.12
2023-04-02T12:03:26.111Z,7.10
2023-04-02T12:06:04.143Z,7.00
2023-04-02T12:09:09.250Z,6.98
2023-04-02T12:11:39.229Z,7.00
2023-04-02T12:14:36.739Z,6.96
2023-04-02T12:17:15.520Z,6.93
2023-04-02T12:19:51.610Z,6.93
2023-04-02T12:22:25.660Z,7.00
2023-04-02T12:24:56.680Z,6.91
2023-04-02T12:27:27.946Z,6.76
2023-04-02T12:30:11.641Z,6.64
2023-04-02T12:32:38.734Z,6.57
2023-04-02T12:35:06.568Z,6.56
2023-04-02T12:37:33.260Z,6.61
2023-04-02T12:40:07.124Z,6.62
2023-04-02T12:42:36.378Z,6.58
2023-04-02T12:45:05.615Z,6.57
2023-04-02T12:47:33.162Z,6.51
2023-04-02T12:50:01.823Z,6.49
2023-04-02T12:52:29.724Z,6.56
2023-04-02T12:54:58.407Z,6.60
2023-04-02T12:57:29.088Z,6.60
2023-04-02T12:59:58.542Z,6.53
2023-04-02T13:02:28.091Z,6.52
2023-04-02T13:05:03.562Z,6.63
2023-04-02T13:07:33.649Z,6.71
2023-04-02T13:10:05.072Z,6.69
2023-04-02T13:12:41.463Z,6.69
2023-04-02T13:15:22.197Z,6.70
2023-04-02T13:18:03.828Z,6.74
2023-04-02T13:20:37.062Z,6.74
2023-04-02T13:23:29.161Z,6.67
2023-04-02T13:26:19.508Z,6.63
2023-04-02T13:29:18.254Z,6.55
2023-04-02T13:31:45.210Z,6.52
2023-04-02T13:34:11.874Z,6.47
2023-04-02T13:36:38.576Z,6.43
2023-04-02T13:39:05.846Z,6.36
2023-04-02T13:41:39.854Z,6.30
2023-04-02T13:44:06.764Z,6.21
2023-04-02T13:46:34.998Z,6.09
2023-04-02T13:49:02.023Z,5.99
2023-04-02T13:51:38.039Z,5.86
2023-04-02T13:54:13.927Z,5.69
2023-04-02T13:56:41.399Z,5.60
2023-04-02T13:59:08.102Z,5.55
2023-04-02T14:01:35.150Z,5.52
2023-04-02T14:04:02.708Z,5.44
2023-04-02T14:06:51.866Z,5.28
2023-04-02T14:09:40.522Z,5.11
2023-04-02T14:12:28.807Z,4.99
2023-04-02T14:15:12.531Z,4.99
2023-04-02T14:17:51.105Z,5.00
2023-04-02T14:20:51.437Z,4.94
2023-04-02T14:23:33.144Z,4.87
2023-04-02T14:26:22.318Z,4.86
2023-04-02T14:29:04.526Z,4.82
2023-04-02T14:31:41.338Z,4.79
2023-04-02T14:34:39.947Z,4.81
2023-04-02T14:37:22.806Z,4.87
2023-04-02T14:40:07.691Z,4.93
2023-04-02T14:42:43.834Z,5.00
2023-04-02T14:45:22.043Z,5.01
2023-04-02T14:48:02.219Z,4.94
2023-04-02T14:50:41.859Z,4.94
2023-04-02T14:53:18.357Z,5.01
2023-04-02T14:55:48.461Z,5.04
2023-04-02T14:58:39.201Z,4.96
2023-04-02T15:01:19.058Z,4.89
2023-04-02T15:03:53.213Z,4.84
2023-04-02T15:06:24.742Z,4.75
2023-04-02T15:09:18.128Z,4.71
2023-04-02T15:11:54.999Z,4.68
2023-04-02T15:14:28.643Z,4.59
2023-04-02T15:16:55.595Z,4.57
2023-04-02T15:19:22.312Z,4.65
2023-04-02T15:22:09.440Z,4.71
2023-04-02T15:25:09.985Z,4.74
2023-04-02T15:28:02.303Z,4.78
2023-04-02T15:30:39.088Z,4.78
2023-04-02T15:33:29.698Z,4.77
2023-04-02T15:36:24.110Z,4.84
2023-04-02T15:38:58.785Z,4.88
2023-04-02T15:41:27.616Z,4.91
2023-04-02T15:44:15.430Z,4.91
2023-04-02T15:46:47.795Z,4.90
2023-04-02T15:49:45.169Z,4.82
2023-04-02T15:52:30.463Z,4.68
2023-04-02T15:55:16.460Z,4.61
2023-04-02T15:58:01.585Z,4.47
2023-04-02T16:00:34.498Z,4.44
2023-04-02T16:03:47.516Z,4.41
2023-04-02T16:06:29.294Z,4.40
2023-04-02T16:09:14.371Z,4.37
2023-04-02T16:11:41.262Z,4.28
2023-04-02T16:14:31.419Z,4.17
2023-04-02T16:17:21.514Z,4.03
2023-04-02T16:20:28.776Z,3.94
2023-04-02T16:23:21.129Z,3.85
2023-04-02T16:25:56.553Z,3.74
2023-04-02T16:28:50.630Z,3.64
2023-04-02T16:31:26.257Z,3.55
2023-04-02T16:34:12.884Z,3.43
2023-04-02T16:36:52.237Z,3.31
2023-04-02T16:39:37.304Z,3.20
2023-04-02T16:42:22.491Z,3.03
2023-04-02T16:45:16.448Z,2.93
2023-04-02T16:48:08.483Z,2.83
2023-04-02T16:50:48.965Z,2.79
2023-04-02T16:53:58.698Z,2.77
2023-04-02T16:56:56.250Z,2.74
2023-04-02T16:59:37.861Z,2.69
2023-04-02T17:02:20.630Z,2.66
2023-04-02T17:05:29.702Z,2.56
2023-04-02T17:08:15.106Z,2.44
2023-04-02T17:10:55.812Z,2.35
2023-04-02T17:13:40.450Z,2.28
2023-04-02T17:16:20.197Z,2.21
2023-04-02T17:18:51.222Z,2.16
2023-04-02T17:21:22.314Z,2.08
2023-04-02T17:24:17.280Z,2.01
2023-04-02T17:26:47.829Z,1.94
2023-04-02T17:29:21.957Z,1.89
2023-04-02T17:31:50.651Z,1.80
2023-04-02T17:34:18.955Z,1.75
2023-04-02T17:37:03.997Z,1.72
2023-04-02T17:39:55.339Z,1.67
2023-04-02T17:42:30.945Z,1.62
2023-04-02T17:45:14.322Z,1.53
2023-04-02T17:48:18.392Z,1.48
2023-04-02T17:50:52.247Z,1.40
2023-04-02T17:53:29.696Z,1.36
2023-04-02T17:56:41.200Z,1.29
2023-04-02T17:59:13.894Z,1.24
2023-04-02T18:01:58.921Z,1.19
2023-04-02T18:04:40.544Z,1.16
2023-04-02T18:07:40.851Z,1.13
2023-04-02T18:10:19.491Z,1.08
2023-04-02T18:12:46.135Z,1.03
2023-04-02T18:15:24.873Z,0.99
2023-04-02T18:18:26.992Z,0.95
2023-04-02T18:20:56.739Z,0.88
2023-04-02T18:24:04.454Z,0.82
2023-04-02T18:26:36.997Z,0.79
2023-04-02T18:29:27.098Z,0.74
2023-04-02T18:32:12.406Z,0.69
2023-04-02T18:34:45.200Z,0.63
2023-04-02T18:37:36.065Z,0.60
2023-04-02T18:40:02.680Z,0.60
2023-04-02T18:42:52.524Z,0.57
2023-04-02T18:45:33.010Z,0.54
2023-04-02T18:48:16.785Z,0.52
2023-04-02T18:50:46.978Z,0.52
2023-04-02T18:53:24.663Z,0.51
2023-04-02T18:55:56.527Z,0.46
2023-04-02T18:58:29.888Z,0.42
2023-04-02T19:00:58.570Z,0.39
2023-04-02T19:03:45.580Z,0.38
2023-04-02T19:06:23.829Z,0.30
2023-04-02T19:08:57.678Z,0.25
2023-04-02T19:11:29.806Z,0.25
2023-04-02T19:14:01.970Z,0.25
2023-04-02T19:16:37.816Z,0.22
2023-04-02T19:19:20.034Z,0.19
2023-04-02T19:21:55.392Z,0.14
2023-04-02T19:25:03.768Z,0.08
2023-04-02T19:27:53.270Z,0.05
2023-04-02T19:30:47.156Z,0.01
2023-04-02T19:33:36.493Z,-0.06
2023-04-02T19:36:06.540Z,-0.07
2023-04-02T19:38:52.707Z,-0.09
2023-04-02T19:41:34.897Z,-0.11
2023-04-02T19:44:01.947Z,-0.15
2023-04-02T19:46:28.962Z,-0.14
2023-04-02T19:49:23.138Z,-0.18
2023-04-02T19:51:50.826Z,-0.21
2023-04-02T19:54:18.328Z,-0.23
2023-04-02T19:56:45.535Z,-0.26
2023-04-02T19:59:18.194Z,-0.26
2023-04-02T20:01:46.208Z,-0.29
2023-04-02T20:04:13.479Z,-0.28
2023-04-02T20:06:40.215Z,-0.32
2023-04-02T20:09:08.479Z,-0.40
2023-04-02T20:11:37.105Z,-0.38
2023-04-02T20:14:04.471Z,-0.39
2023-04-02T20:16:32.884Z,-0.39
2023-04-02T20:18:59.834Z,-0.42
2023-04-02T20:21:27.575Z,-0.46
2023-04-02T20:23:55.476Z,-0.54
2023-04-02T20:26:22.869Z,-0.53
2023-04-02T20:28:49.703Z,-0.53
2023-04-02T20:31:18.558Z,-0.55
2023-04-02T20:33:45.559Z,-0.57
2023-04-02T20:36:14.466Z,-0.56
2023-04-02T20:38:41.714Z,-0.56
2023-04-02T20:41:09.436Z,-0.57
2023-04-02T20:43:40.473Z,-0.61
2023-04-02T20:46:09.505Z,-0.62
2023-04-02T20:48:37.746Z,-0.66
2023-04-02T20:51:07.372Z,-0.69
2023-04-02T20:53:36.013Z,-0.70
2023-04-02T20:56:10.477Z,-0.71
2023-04-02T20:58:38.146Z,-0.74
2023-04-02T21:01:16.343Z,-0.79
2023-04-02T21:03:43.754Z,-0.80
2023-04-02T21:06:22.023Z,-0.81
2023-04-02T21:08:49.987Z,-0.78
2023-04-02T21:11:17.601Z,-0.79
2023-04-02T21:13:44.498Z,-0.78
2023-04-02T21:16:14.209Z,-0.82
2023-04-02T21:18:41.088Z,-0.89
2023-04-02T21:21:08.298Z,-0.84
2023-04-02T21:23:34.998Z,-0.88
2023-04-02T21:26:06.265Z,-0.92
2023-04-02T21:28:34.473Z,-0.94
2023-04-02T21:31:15.908Z,-0.96
2023-04-02T21:33:46.371Z,-0.93
2023-04-02T21:36:16.431Z,-0.94
2023-04-02T21:38:45.923Z,-0.96
2023-04-02T21:41:16.168Z,-0.99
2023-04-02T21:43:44.227Z,-0.99
2023-04-02T21:46:11.124Z,-0.96
2023-04-02T21:48:38.012Z,-0.96
2023-04-02T21:51:06.765Z,-0.94
2023-04-02T21:53:33.822Z,-0.96
2023-04-02T21:56:02.101Z,-0.98
2023-04-02T21:58:28.833Z,-1.00
2023-04-02T22:00:55.651Z,-1.01
2023-04-02T22:03:31.083Z,-0.98
2023-04-02T22:06:07.209Z,-0.98
2023-04-02T22:08:38.842Z,-0.99
2023-04-02T22:11:12.236Z,-1.00
2023-04-02T22:13:40.780Z,-1.02
2023-04-02T22:16:15.796Z,-1.03
2023-04-02T22:18:43.395Z,-1.08
2023-04-02T22:21:11.601Z,-1.10
2023-04-02T22:23:38.955Z,-1.13
2023-04-02T22:26:07.116Z,-1.12
2023-04-02T22:28:34.237Z,-1.12
2023-04-02T22:31:18.306Z,-1.14
2023-04-02T22:33:45.808Z,-1.16
2023-04-02T22:36:14.338Z,-1.17
2023-04-02T22:38:41.401Z,-1.20
2023-04-02T22:41:14.110Z,-1.27
2023-04-02T22:43:44.099Z,-1.33
2023-04-02T22:46:13.104Z,-1.37
2023-04-02T22:48:40.074Z,-1.40
2023-04-02T22:51:11.527Z,-1.40
2023-04-02T22:53:39.182Z,-1.40
2023-04-02T22:56:07.097Z,-1.40
2023-04-02T22:58:34.778Z,-1.45
2023-04-02T23:01:06.905Z,-1.48
2023-04-02T23:03:34.333Z,-1.52
2023-04-02T23:06:03.698Z,-1.56
2023-04-02T23:08:30.633Z,-1.54
2023-04-02T23:11:06.895Z,-1.50
2023-04-02T23:13:34.737Z,-1.48
2023-04-02T23:16:02.964Z,-1.47
2023-04-02T23:18:32.556Z,-1.51
2023-04-02T23:20:59.445Z,-1.51
2023-04-02T23:23:27.031Z,-1.46
2023-04-02T23:26:04.807Z,-1.47
2023-04-02T23:28:31.680Z,-1.46
2023-04-02T23:30:58.965Z,-1.48
2023-04-02T23:33:25.640Z,-1.49
2023-04-02T23:35:52.359Z,-1.54
2023-04-02T23:38:19.103Z,-1.54
2023-04-02T23:40:45.815Z,-1.57
2023-04-02T23:43:12.486Z,-1.57
2023-04-02T23:45:39.142Z,-1.60
2023-04-02T23:48:06.208Z,-1.63
2023-04-02T23:50:33.029Z,-1.63
2023-04-02T23:52:59.855Z,-1.62
2023-04-02T23:55:26.508Z,-1.67
2023-04-02T23:57:53.151Z,-1.69
